Time;durP1;ratioP1;P1;durP2;ratioP2;P2;SDS_P1;SDS_P2;PMS_P1;PMS_P2;Temp;Humidity;BMP_temperature;BMP_pressure;BME280_temperature;BME280_humidity;BME280_pressure;Samples;Min_cycle;Max_cycle;Signal;HPM_P1;HPM_P2
2021/01/13 00:00:44;;;;;;;16.70;5.88;;;;;;;1.62;100.00;100960.22;10175422;29;20055;-74
2021/01/13 00:05:45;;;;;;;13.93;5.72;;;;;;;1.62;100.00;100961.06;10175407;29;20123;-73
2021/01/13 00:10:46;;;;;;;10.85;4.78;;;;;;;1.60;100.00;100962.81;10174602;29;20063;-73
2021/01/13 00:15:47;;;;;;;15.38;5.72;;;;;;;1.56;100.00;100961.09;10174714;29;20111;-73
2021/01/13 00:20:48;;;;;;;12.75;4.85;;;;;;;1.73;100.00;100985.31;10157709;29;20044;-73
2021/01/13 00:25:50;;;;;;;16.58;5.65;;;;;;;1.61;100.00;100966.25;10175175;29;20063;-73
2021/01/13 00:30:51;;;;;;;17.83;5.85;;;;;;;1.69;100.00;100982.69;10146313;29;20482;-73
2021/01/13 00:35:52;;;;;;;13.57;6.20;;;;;;;1.62;100.00;100975.78;10144509;29;20040;-73
2021/01/13 00:40:53;;;;;;;20.67;6.93;;;;;;;1.60;100.00;100980.09;10174123;29;20440;-73
2021/01/13 00:45:56;;;;;;;18.42;7.03;;;;;;;1.48;100.00;100963.72;10157939;29;20044;-73
2021/01/13 00:50:58;;;;;;;20.05;7.65;;;;;;;1.58;100.00;100974.94;10191907;29;20147;-74
2021/01/13 00:55:59;;;;;;;23.10;6.82;;;;;;;1.56;100.00;100971.47;10174882;29;20055;-74
2021/01/13 01:01:01;;;;;;;14.05;5.72;;;;;;;1.59;100.00;100986.19;10173267;29;20481;-73
2021/01/13 01:06:02;;;;;;;15.27;7.70;;;;;;;1.50;100.00;100964.59;10174222;29;20047;-73
2021/01/13 01:11:05;;;;;;;16.55;6.50;;;;;;;1.66;100.00;100988.78;10174412;29;20048;-73
2021/01/13 01:16:08;;;;;;;14.40;5.95;;;;;;;1.55;100.00;100969.75;10173549;29;20059;-73
2021/01/13 01:21:09;;;;;;;14.23;6.47;;;;;;;1.65;100.00;100987.03;10172944;29;20064;-73
2021/01/13 01:26:10;;;;;;;15.43;7.18;;;;;;;1.66;100.00;100998.31;10171936;29;20054;-74
2021/01/13 01:31:12;;;;;;;14.02;7.13;;;;;;;1.71;100.00;101005.22;10179967;29;20055;-73
2021/01/13 01:36:15;;;;;;;14.77;6.70;;;;;;;1.67;100.00;100994.84;10181423;29;20131;-73
2021/01/13 01:41:18;;;;;;;16.20;7.30;;;;;;;1.67;100.00;100987.06;10180082;29;20064;-73
2021/01/13 01:46:20;;;;;;;13.13;6.28;;;;;;;1.69;100.00;101000.88;10179840;29;20519;-74
2021/01/13 01:51:50;;;;;;;19.85;7.80;;;;;;;1.74;100.00;101007.81;10208314;29;20083;-73
2021/01/13 01:56:56;;;;;;;15.80;6.60;;;;;;;1.88;100.00;101018.16;10139469;29;20072;-73
2021/01/13 02:02:01;;;;;;;15.43;7.28;;;;;;;1.91;100.00;101007.78;10146765;29;20036;-74
2021/01/13 02:07:08;;;;;;;14.00;6.38;;;;;;;1.91;100.00;101005.19;10180203;29;20055;-73
2021/01/13 02:12:12;;;;;;;14.65;7.15;;;;;;;1.79;100.00;100998.25;10162892;29;20500;-73
2021/01/13 02:17:14;;;;;;;17.05;7.53;;;;;;;1.73;100.00;100994.81;10161684;29;20044;-73
2021/01/13 02:22:20;;;;;;;14.30;7.40;;;;;;;1.71;100.00;100992.22;10179001;29;20067;-73
2021/01/13 02:27:30;;;;;;;13.05;6.88;;;;;;;1.65;100.00;100984.44;10179076;29;20070;-73
2021/01/13 02:32:42;;;;;;;12.55;7.70;;;;;;;1.61;100.00;100995.69;10178650;29;20048;-73
2021/01/13 02:38:06;;;;;;;15.48;9.23;;;;;;;1.65;100.00;100991.38;10177681;29;20044;-74
2021/01/13 02:43:10;;;;;;;21.23;9.00;;;;;;;1.71;100.00;101005.22;10160745;29;20556;-74
2021/01/13 02:48:12;;;;;;;16.67;9.00;;;;;;;1.68;100.00;101000.00;10180194;29;20044;-73
2021/01/13 02:53:13;;;;;;;19.48;9.50;;;;;;;1.77;100.00;101014.72;10146545;29;20040;-73
2021/01/13 02:58:20;;;;;;;18.05;10.32;;;;;;;1.68;100.00;101002.59;10138504;29;20140;-73
2021/01/13 03:03:22;;;;;;;19.50;9.55;;;;;;;1.59;100.00;100997.41;10153281;29;20556;-73
2021/01/13 03:08:47;;;;;;;17.00;9.40;;;;;;;1.63;100.00;101001.75;10177585;29;20059;-73
2021/01/13 03:13:48;;;;;;;20.48;9.95;;;;;;;1.68;100.00;101007.78;10150046;29;20048;-73
2021/01/13 03:18:57;;;;;;;15.65;8.95;;;;;;;1.67;100.00;101011.28;10160081;29;20060;-73
2021/01/13 03:24:11;;;;;;;20.42;10.70;;;;;;;1.63;100.00;101014.75;10158737;29;20045;-74
2021/01/13 03:29:18;;;;;;;19.33;9.95;;;;;;;1.57;100.00;101016.50;10155466;29;20040;-73
2021/01/13 03:34:29;;;;;;;17.55;9.40;;;;;;;1.58;100.00;101016.50;10203456;29;20134;-73
2021/01/13 03:39:36;;;;;;;18.52;9.95;;;;;;;1.73;100.00;101031.19;10208860;29;20059;-74
2021/01/13 03:44:40;;;;;;;14.38;8.60;;;;;;;1.75;100.00;101030.31;10159658;29;20056;-73
2021/01/13 03:49:58;;;;;;;19.98;10.18;;;;;;;1.72;100.00;101019.06;10175983;29;20052;-73
2021/01/13 03:55:02;;;;;;;17.20;10.82;;;;;;;1.76;100.00;101029.44;10176658;29;20048;-73
2021/01/13 04:00:07;;;;;;;18.37;10.60;;;;;;;1.70;100.00;101020.78;10175749;29;20044;-73
2021/01/13 04:05:21;;;;;;;18.67;10.13;;;;;;;1.82;100.00;101029.44;10175509;29;20359;-74
2021/01/13 04:10:23;;;;;;;19.30;9.60;;;;;;;1.75;100.00;101019.06;10158181;29;20083;-74
2021/01/13 04:15:37;;;;;;;20.10;10.20;;;;;;;1.69;100.00;101012.13;10175216;29;20138;-74
2021/01/13 04:20:38;;;;;;;19.98;9.13;;;;;;;1.71;100.00;101009.53;10174763;29;20055;-73
2021/01/13 04:25:40;;;;;;;19.15;9.88;;;;;;;1.68;100.00;101005.19;10158804;29;20056;-74
2021/01/13 04:30:41;;;;;;;17.00;8.93;;;;;;;1.62;100.00;100992.22;10174646;29;20484;-73
2021/01/13 04:35:42;;;;;;;20.67;9.13;;;;;;;1.69;100.00;101003.47;10187839;29;20472;-73
2021/01/13 04:40:49;;;;;;;16.23;7.97;;;;;;;1.78;100.00;101025.09;10173656;29;20104;-74
2021/01/13 04:45:50;;;;;;;22.17;9.45;;;;;;;1.80;100.00;101009.53;10164346;29;20052;-73
2021/01/13 04:50:52;;;;;;;16.65;9.15;;;;;;;2.03;100.00;101014.66;10142560;29;20048;-74
2021/01/13 04:55:55;;;;;;;17.15;9.93;;;;;;;2.05;100.00;101028.50;10174633;29;20050;-74
2021/01/13 05:01:13;;;;;;;20.63;11.02;;;;;;;1.95;100.00;101019.00;10175609;29;20052;-73
2021/01/13 05:06:32;;;;;;;21.95;11.70;;;;;;;1.98;100.00;101006.00;10182421;29;20457;-73
2021/01/13 05:11:41;;;;;;;21.35;11.50;;;;;;;2.05;100.00;101012.91;10185607;29;20044;-75
2021/01/13 05:16:48;;;;;;;21.25;11.43;;;;;;;1.95;100.00;101000.81;10202278;29;20390;-73
2021/01/13 05:21:59;;;;;;;25.33;11.93;;;;;;;1.97;100.00;101014.66;10181046;29;20105;-73
2021/01/13 05:27:03;;;;;;;29.30;13.20;;;;;;;1.85;100.00;100995.63;10180982;29;20052;-74
2021/01/13 05:32:09;;;;;;;18.10;10.63;;;;;;;1.92;100.00;100990.44;10180692;29;20048;-73
2021/01/13 05:37:13;;;;;;;16.40;11.05;;;;;;;1.91;100.00;101002.56;10178169;29;20716;-72
2021/01/13 05:42:15;;;;;;;23.20;10.73;;;;;;;2.00;100.00;100989.56;10122278;29;20060;-73
2021/01/13 05:47:46;;;;;;;24.35;10.80;;;;;;;2.15;100.00;101001.63;10125228;29;20053;-72
2021/01/13 05:52:48;;;;;;;17.20;9.52;;;;;;;2.15;100.00;101007.69;10160923;29;20096;-72
2021/01/13 05:57:57;;;;;;;18.88;9.73;;;;;;;2.14;100.00;100998.16;10163432;29;20059;-72
2021/01/13 06:03:03;;;;;;;15.38;9.60;;;;;;;2.24;100.00;101020.66;10179480;29;20047;-72
2021/01/13 06:08:06;;;;;;;24.45;11.13;;;;;;;2.09;100.00;101004.25;10179365;29;20048;-72
2021/01/13 06:13:14;;;;;;;23.60;12.93;;;;;;;1.95;100.00;101000.81;10179248;29;20044;-72
2021/01/13 06:18:21;;;;;;;20.52;12.50;;;;;;;1.73;100.00;100971.44;10162420;29;20052;-72
2021/01/13 06:23:23;;;;;;;20.15;12.43;;;;;;;1.74;100.00;100960.19;10178811;29;20040;-72
2021/01/13 06:28:25;;;;;;;17.23;12.70;;;;;;;1.82;100.00;100981.81;10178458;29;20044;-72
2021/01/13 06:33:33;;;;;;;22.35;12.02;;;;;;;1.79;100.00;100987.00;10195291;29;20051;-72
2021/01/13 06:38:47;;;;;;;21.35;11.63;;;;;;;1.78;100.00;100986.13;10179112;29;20397;-72
2021/01/13 06:44:06;;;;;;;18.70;11.93;;;;;;;1.74;100.00;100981.84;10178571;29;20060;-72
2021/01/13 06:49:25;;;;;;;23.55;11.52;;;;;;;1.65;100.00;100984.44;10176121;29;20449;-72
2021/01/13 06:54:27;;;;;;;23.90;12.07;;;;;;;1.64;100.00;100964.53;10163011;29;20059;-72
2021/01/13 06:59:38;;;;;;;19.35;10.98;;;;;;;1.66;100.00;100981.00;10154086;29;20067;-72
2021/01/13 07:04:48;;;;;;;28.00;13.27;;;;;;;1.63;100.00;100975.78;10163029;29;20533;-72
2021/01/13 07:09:50;;;;;;;22.38;12.85;;;;;;;1.58;100.00;100972.34;10165575;29;20056;-72
2021/01/13 07:14:56;;;;;;;23.08;12.45;;;;;;;1.58;100.00;100974.09;10138159;29;20053;-72
2021/01/13 07:20:03;;;;;;;19.77;12.05;;;;;;;1.50;100.00;100971.50;10165279;29;20056;-72
2021/01/13 07:25:12;;;;;;;19.65;12.15;;;;;;;1.50;100.00;100971.50;10173477;29;20092;-73
2021/01/13 07:30:17;;;;;;;20.55;12.18;;;;;;;1.67;100.00;100984.44;10171029;29;20051;-73
2021/01/13 07:35:24;;;;;;;28.20;12.93;;;;;;;1.56;100.00;100976.69;10204464;29;20059;-72
2021/01/13 07:40:28;;;;;;;18.25;11.07;;;;;;;1.63;100.00;100990.50;10140178;29;20059;-73
2021/01/13 07:45:33;;;;;;;20.63;11.55;;;;;;;1.65;100.00;100994.84;10175878;29;20052;-75
2021/01/13 07:50:50;;;;;;;23.60;12.07;;;;;;;1.62;100.00;100997.44;10175184;29;20052;-73
2021/01/13 07:56:02;;;;;;;24.05;12.88;;;;;;;1.78;100.00;101009.50;10175833;29;20453;-73
2021/01/13 08:01:25;;;;;;;22.08;11.55;;;;;;;1.83;100.00;101014.72;10175359;29;20040;-72
2021/01/13 08:06:34;;;;;;;22.38;12.85;;;;;;;1.82;100.00;101015.59;10175813;29;20476;-74
2021/01/13 08:11:57;;;;;;;25.25;12.65;;;;;;;1.96;100.00;101039.78;10174832;29;20048;-72
2021/01/13 08:17:33;;;;;;;22.00;11.95;;;;;;;1.91;100.00;101020.75;10175009;29;20063;-72
2021/01/13 08:22:35;;;;;;;14.13;11.38;;;;;;;2.01;100.00;101045.00;10173022;29;20043;-73
2021/01/13 08:27:36;;;;;;;17.40;11.38;;;;;;;2.08;100.00;101049.31;10173394;29;20051;-74
2021/01/13 08:32:41;;;;;;;19.77;11.52;;;;;;;1.95;100.00;101032.00;10186609;29;20044;-73
2021/01/13 08:37:43;;;;;;;17.65;10.85;;;;;;;2.03;100.00;101038.91;10176830;29;20048;-73
2021/01/13 08:42:46;;;;;;;16.67;10.20;;;;;;;1.89;100.00;101025.94;10163671;29;20111;-73
2021/01/13 08:48:05;;;;;;;14.23;9.93;;;;;;;1.90;100.00;101029.41;10164399;29;20079;-73
2021/01/13 08:53:08;;;;;;;21.23;10.60;;;;;;;1.94;100.00;101032.84;10150019;29;20096;-72
2021/01/13 08:58:13;;;;;;;24.00;10.75;;;;;;;2.16;100.00;101042.34;10165704;29;20104;-72
2021/01/13 09:03:26;;;;;;;16.45;10.85;;;;;;;2.52;100.00;101070.78;10162579;29;20441;-72
2021/01/13 09:08:31;;;;;;;13.57;8.60;;;;;;;2.89;100.00;101078.44;10182452;29;20052;-73
2021/01/13 09:13:43;;;;;;;18.38;8.85;;;;;;;3.07;100.00;101093.09;10181722;29;20536;-73
2021/01/13 09:18:46;;;;;;;14.80;9.60;;;;;;;3.03;100.00;101084.41;10180414;29;20492;-73
2021/01/13 09:23:55;;;;;;;14.20;9.43;;;;;;;3.03;100.00;101085.28;10181006;29;20047;-73
2021/01/13 09:28:58;;;;;;;13.77;9.65;;;;;;;3.24;100.00;101092.09;10174833;29;20408;-73
2021/01/13 09:34:00;;;;;;;16.65;10.50;;;;;;;3.11;100.00;101067.00;10218968;29;20040;-74
2021/01/13 09:39:14;;;;;;;16.65;10.85;;;;;;;3.02;100.00;101059.25;10219415;29;20078;-73
2021/01/13 09:44:15;;;;;;;16.85;10.10;;;;;;;3.24;100.00;101084.31;10202320;29;20067;-73
2021/01/13 09:49:19;;;;;;;17.08;10.13;;;;;;;3.15;100.00;101066.13;10219514;29;20075;-74
2021/01/13 09:54:22;;;;;;;15.85;10.05;;;;;;;3.21;100.00;101079.09;10199608;29;20048;-74
2021/01/13 09:59:26;;;;;;;18.92;10.90;;;;;;;3.14;100.00;101080.03;10178647;29;20056;-73
2021/01/13 10:04:27;;;;;;;20.33;10.80;;;;;;;3.09;100.00;101066.19;10179426;29;20048;-73
2021/01/13 10:09:28;;;;;;;17.90;10.23;;;;;;;3.01;100.00;101052.34;10178963;29;20120;-73
2021/01/13 10:14:30;;;;;;;15.57;10.25;;;;;;;3.14;100.00;101054.00;10161302;29;20048;-74
2021/01/13 10:19:32;;;;;;;21.60;11.40;;;;;;;3.18;100.00;101057.44;10175183;29;20040;-74
2021/01/13 10:24:41;;;;;;;18.20;11.45;;;;;;;3.26;100.00;101059.13;10176967;29;20059;-74
2021/01/13 10:29:46;;;;;;;18.95;11.85;;;;;;;3.15;100.00;101047.03;10177421;29;20056;-73
2021/01/13 10:34:53;;;;;;;23.33;13.13;;;;;;;3.21;100.00;101041.78;10205758;29;20055;-74
2021/01/13 10:40:08;;;;;;;21.20;12.27;;;;;;;3.45;100.00;101057.22;10216584;29;20055;-73
2021/01/13 10:45:14;;;;;;;23.55;13.05;;;;;;;3.49;100.00;101051.13;10200323;29;20051;-73
2021/01/13 10:50:18;;;;;;;20.10;11.82;;;;;;;3.42;100.00;101041.63;10185377;29;20401;-73
2021/01/13 10:55:22;;;;;;;19.30;11.50;;;;;;;3.53;100.00;101044.13;10170252;29;20078;-73
2021/01/13 11:00:30;;;;;;;22.98;12.60;;;;;;;3.54;100.00;101035.44;10155789;29;20470;-73
2021/01/13 11:05:35;;;;;;;19.42;11.02;;;;;;;4.02;100.00;101063.63;10160919;29;20036;-73
2021/01/13 11:10:36;;;;;;;20.42;10.75;;;;;;;4.24;100.00;101061.69;10153081;29;20417;-73
2021/01/13 11:15:38;;;;;;;19.70;10.65;;;;;;;3.93;100.00;101022.06;10168082;29;20486;-73
2021/01/13 11:20:39;;;;;;;18.30;10.05;;;;;;;4.13;100.00;101025.28;10176819;29;20516;-74
2021/01/13 11:25:40;;;;;;;16.67;9.95;;;;;;;4.28;100.00;101016.41;10176047;29;20052;-74
2021/01/13 11:30:47;;;;;;;21.38;9.93;;;;;;;4.51;100.00;101018.78;10182343;29;20051;-74
2021/01/13 11:35:49;;;;;;;20.77;10.18;;;;;;;4.48;100.00;101006.63;10216349;29;20401;-73
2021/01/13 11:41:28;;;;;;;15.63;8.73;;;;;;;5.04;100.00;101025.84;10198086;29;20094;-73
2021/01/13 11:46:52;;;;;;;16.45;9.63;;;;;;;4.54;100.00;100982.19;10211747;29;20044;-74
2021/01/13 11:51:56;;;;;;;18.52;9.15;;;;;;;4.49;100.00;100969.22;10158685;29;20048;-73
2021/01/13 11:57:17;;;;;;;13.38;7.60;;;;;;;4.94;100.00;100983.31;10175158;29;20048;-73
2021/01/13 12:02:25;;;;;;;12.85;7.13;;;;;;;4.81;100.00;100954.84;10157115;29;20123;-73
2021/01/13 12:07:26;;;;;;;17.80;8.57;;;;;;;5.95;100.00;100992.94;10175032;29;20091;-73
2021/01/13 12:12:28;;;;;;;15.00;7.05;;;;;;;6.18;100.00;100955.03;10174141;29;20166;-74
2021/01/13 12:17:33;;;;;;;14.05;7.00;;;;;;;6.21;100.00;100926.16;10173289;29;20044;-74
2021/01/13 12:22:35;;;;;;;16.60;7.50;;;;;;;6.53;100.00;100938.56;10155766;29;20056;-74
2021/01/13 12:27:36;;;;;;;11.75;7.25;;;;;;;5.48;100.00;100876.19;10172335;29;20063;-74
2021/01/13 12:32:39;;;;;;;17.83;8.15;;;;;;;5.44;100.00;100890.19;10173939;29;20052;-74
2021/01/13 12:37:48;;;;;;;16.40;7.60;;;;;;;5.05;100.00;100860.44;10172623;29;20473;-74
2021/01/13 12:42:49;;;;;;;17.38;7.72;;;;;;;5.00;100.00;100864.91;10172995;29;20050;-74
2021/01/13 12:47:54;;;;;;;14.48;7.53;;;;;;;5.44;100.00;100858.00;10173165;29;20058;-74
2021/01/13 12:52:55;;;;;;;17.58;9.43;;;;;;;4.81;100.00;100819.13;10171372;29;20048;-74
2021/01/13 12:57:57;;;;;;;17.85;8.43;;;;;;;4.85;100.00;100832.06;10172000;29;20067;-73
2021/01/13 13:02:58;;;;;;;12.55;8.32;;;;;;;7.11;100.00;100940.69;10151871;29;20119;-74
2021/01/13 13:07:59;;;;;;;21.50;9.50;;;;;;;5.92;100.00;100823.06;10164023;29;20041;-73
2021/01/13 13:13:00;;;;;;;19.00;8.95;;;;;;;7.44;96.23;100913.63;10170634;29;20052;-74
2021/01/13 13:18:02;;;;;;;12.52;7.50;;;;;;;7.69;87.25;100850.03;10155054;29;20064;-73
2021/01/13 13:23:03;;;;;;;18.20;7.75;;;;;;;9.16;78.97;100862.91;10176324;29;20048;-74
2021/01/13 13:28:04;;;;;;;14.45;7.20;;;;;;;8.08;81.07;100811.25;10178843;29;20052;-74
2021/01/13 13:33:05;;;;;;;14.48;6.95;;;;;;;8.09;79.97;100792.84;10177259;29;20052;-73
2021/01/13 13:38:06;;;;;;;12.23;6.90;;;;;;;8.24;81.35;100823.84;10163284;29;20058;-76
2021/01/13 13:43:08;;;;;;;11.77;5.90;;;;;;;7.88;82.71;100824.97;10162533;29;20056;-74
2021/01/13 13:48:09;;;;;;;20.77;7.53;;;;;;;6.19;86.60;100737.88;10162251;29;20052;-75
2021/01/13 13:53:11;;;;;;;12.63;7.35;;;;;;;5.57;95.17;100757.56;10179062;29;20063;-74
2021/01/13 13:58:13;;;;;;;14.57;7.65;;;;;;;6.77;91.53;100799.25;10178317;29;20036;-74
2021/01/13 14:03:14;;;;;;;15.90;7.55;;;;;;;5.19;98.39;100732.25;10177420;29;20486;-73
2021/01/13 14:08:16;;;;;;;13.30;7.28;;;;;;;5.07;100.00;100742.94;10178257;29;20055;-76
2021/01/13 14:13:18;;;;;;;15.02;8.25;;;;;;;4.68;100.00;100727.16;10178372;29;20054;-73
2021/01/13 14:18:29;;;;;;;12.00;6.65;;;;;;;4.35;100.00;100717.31;10178105;29;20127;-74
2021/01/13 14:23:30;;;;;;;14.10;7.95;;;;;;;4.28;100.00;100732.16;10178047;29;20404;-75
2021/01/13 14:28:31;;;;;;;17.08;7.35;;;;;;;4.22;100.00;100734.03;10177519;29;20051;-74
2021/01/13 14:33:32;;;;;;;17.30;8.65;;;;;;;4.12;100.00;100747.19;10178599;29;20044;-74
2021/01/13 14:38:34;;;;;;;15.95;8.82;;;;;;;4.16;100.00;100745.41;10177699;29;20766;-74
2021/01/13 14:43:35;;;;;;;15.63;6.85;;;;;;;4.21;100.00;100761.84;10176228;29;20056;-74
2021/01/13 14:48:36;;;;;;;17.42;7.00;;;;;;;4.09;100.00;100767.25;10160807;29;20400;-74
2021/01/13 14:53:38;;;;;;;10.73;6.40;;;;;;;3.96;100.00;100763.97;10170259;29;20059;-74
2021/01/13 14:58:40;;;;;;;21.13;8.40;;;;;;;3.94;100.00;100752.69;10157952;29;20055;-74
2021/01/13 15:03:41;;;;;;;13.43;7.28;;;;;;;3.83;100.00;100753.75;10170576;29;20127;-74
2021/01/13 15:08:46;;;;;;;16.67;8.18;;;;;;;3.82;100.00;100750.28;10159800;29;20052;-74
2021/01/13 15:13:47;;;;;;;16.55;7.93;;;;;;;3.71;100.00;100742.59;10176106;29;20509;-75
2021/01/13 15:18:49;;;;;;;18.77;7.78;;;;;;;3.73;100.00;100748.66;10182266;29;20054;-74
2021/01/13 15:23:51;;;;;;;15.73;7.75;;;;;;;3.66;100.00;100739.22;10197797;29;20047;-74
2021/01/13 15:28:52;;;;;;;16.45;8.02;;;;;;;3.58;100.00;100732.41;10174819;29;20051;-74
2021/01/13 15:33:53;;;;;;;19.95;8.15;;;;;;;3.68;100.00;100740.03;10152238;29;20037;-74
2021/01/13 15:38:55;;;;;;;13.25;8.25;;;;;;;3.59;100.00;100734.13;10138051;29;20043;-75
2021/01/13 15:43:56;;;;;;;16.27;7.13;;;;;;;3.56;100.00;100736.75;10174627;29;20059;-74
2021/01/13 15:48:58;;;;;;;12.95;7.10;;;;;;;3.47;100.00;100722.13;10175240;29;20040;-74
2021/01/13 15:53:59;;;;;;;14.45;7.20;;;;;;;3.53;100.00;100734.19;10158043;29;20056;-75
2021/01/13 15:59:03;;;;;;;20.48;9.02;;;;;;;3.46;100.00;100723.00;10175257;29;20543;-75
2021/01/13 16:04:04;;;;;;;13.73;8.23;;;;;;;3.53;100.00;100734.19;10174139;29;20040;-74
2021/01/13 16:09:07;;;;;;;13.55;7.53;;;;;;;3.52;100.00;100709.88;10157167;29;20036;-73
2021/01/13 16:14:14;;;;;;;15.05;8.02;;;;;;;3.45;100.00;100708.25;10174425;29;20048;-74
2021/01/13 16:19:16;;;;;;;18.25;7.90;;;;;;;3.46;100.00;100720.38;10174284;29;20485;-73
2021/01/13 16:24:17;;;;;;;14.30;8.15;;;;;;;3.45;100.00;100703.03;10174882;29;20048;-74
2021/01/13 16:29:19;;;;;;;17.13;8.15;;;;;;;3.41;100.00;100707.44;10174499;29;20119;-74
2021/01/13 16:34:20;;;;;;;14.90;8.43;;;;;;;3.55;100.00;100716.78;10168964;29;20078;-74
2021/01/13 16:39:41;;;;;;;22.45;8.15;;;;;;;3.33;100.00;100721.44;10173117;29;20056;-75
2021/01/13 16:44:43;;;;;;;19.85;10.85;;;;;;;3.28;100.00;100707.59;10173711;29;20060;-74
2021/01/13 16:49:44;;;;;;;23.85;11.48;;;;;;;3.33;100.00;100719.69;10172956;29;20048;-74
2021/01/13 16:54:46;;;;;;;57.25;28.88;;;;;;;3.32;100.00;100698.88;10173224;29;20131;-74
2021/01/13 16:59:59;;;;;;;29.45;17.13;;;;;;;3.36;100.00;100700.56;10179604;29;20055;-74
2021/01/13 17:05:07;;;;;;;16.73;9.18;;;;;;;3.38;100.00;100691.84;10180480;29;20052;-74
2021/01/13 17:10:11;;;;;;;23.83;12.38;;;;;;;3.32;100.00;100694.53;10181006;29;20373;-74
2021/01/13 17:15:14;;;;;;;14.65;10.75;;;;;;;3.35;100.00;100699.69;10161611;29;20143;-74
2021/01/13 17:20:18;;;;;;;18.52;8.98;;;;;;;3.34;100.00;100699.72;10162543;29;20055;-74
2021/01/13 17:25:22;;;;;;;23.63;12.93;;;;;;;3.36;100.00;100713.56;10181047;29;20488;-74
2021/01/13 17:30:24;;;;;;;19.30;12.70;;;;;;;3.40;100.00;100710.94;10173987;29;20460;-75
2021/01/13 17:35:26;;;;;;;17.98;12.02;;;;;;;3.26;100.00;100699.84;10177938;29;20040;-75
2021/01/13 17:40:27;;;;;;;20.85;12.90;;;;;;;3.28;100.00;100708.47;10176860;29;20080;-75
2021/01/13 17:45:29;;;;;;;25.27;15.00;;;;;;;3.31;100.00;100711.03;10161213;29;20036;-75
2021/01/13 17:50:31;;;;;;;17.33;10.43;;;;;;;3.26;100.00;100717.19;10179166;29;20493;-75
2021/01/13 17:55:33;;;;;;;23.63;13.85;;;;;;;3.25;100.00;100713.72;10181588;29;20052;-75
2021/01/13 18:00:35;;;;;;;23.38;13.15;;;;;;;3.27;100.00;100737.97;10168141;29;20052;-72
2021/01/13 18:05:43;;;;;;;19.17;11.40;;;;;;;3.19;100.00;100737.22;10178153;29;20078;-73
2021/01/13 18:10:44;;;;;;;18.10;10.82;;;;;;;3.14;100.00;100726.00;10145246;29;20446;-73
2021/01/13 18:15:46;;;;;;;17.23;11.02;;;;;;;3.11;100.00;100739.06;10152260;29;20044;-73
2021/01/13 18:20:47;;;;;;;19.50;11.23;;;;;;;3.10;100.00;100734.72;10165719;29;20047;-73
2021/01/13 18:25:50;;;;;;;21.17;11.43;;;;;;;3.07;100.00;100739.13;10177453;29;20048;-73
2021/01/13 18:30:51;;;;;;;20.25;11.73;;;;;;;3.09;100.00;100751.25;10171677;29;20048;-73
2021/01/13 18:35:52;;;;;;;26.30;15.98;;;;;;;3.05;100.00;100749.53;10171194;29;20044;-73
2021/01/13 18:40:53;;;;;;;27.13;15.98;;;;;;;3.08;100.00;100748.66;10153602;29;20120;-73
2021/01/13 18:45:54;;;;;;;23.92;14.32;;;;;;;3.12;100.00;100750.31;10137298;29;20040;-73
2021/01/13 18:50:55;;;;;;;29.27;18.40;;;;;;;3.11;100.00;100749.47;10138978;29;20051;-73
2021/01/13 18:55:57;;;;;;;30.02;17.95;;;;;;;3.04;100.00;100743.47;10137562;29;20052;-73
2021/01/13 19:00:58;;;;;;;25.25;14.23;;;;;;;3.12;100.00;100756.41;10159672;29;20461;-73
2021/01/13 19:05:59;;;;;;;24.55;13.38;;;;;;;2.99;100.00;100747.88;10177159;29;20051;-73
2021/01/13 19:11:01;;;;;;;22.00;12.60;;;;;;;3.06;100.00;100774.69;10177282;29;20052;-72
2021/01/13 19:16:24;;;;;;;22.60;13.27;;;;;;;3.03;100.00;100766.91;10141127;29;20046;-71
2021/01/13 19:21:26;;;;;;;21.00;12.98;;;;;;;2.99;100.00;100767.84;10142565;29;20127;-72
2021/01/13 19:26:27;;;;;;;20.83;13.82;;;;;;;2.90;100.00;100760.97;10176198;29;20432;-72
2021/01/13 19:31:33;;;;;;;25.58;13.15;;;;;;;2.94;100.00;100770.47;10175700;29;20051;-72
2021/01/13 19:36:35;;;;;;;23.35;12.68;;;;;;;2.85;100.00;100747.13;10171653;29;20048;-72
2021/01/13 19:41:37;;;;;;;24.40;12.98;;;;;;;2.86;100.00;100768.81;10145628;29;20061;-72
2021/01/13 19:46:45;;;;;;;24.48;13.30;;;;;;;2.84;100.00;100763.66;10171441;29;20044;-71
2021/01/13 19:51:48;;;;;;;18.17;12.60;;;;;;;2.91;100.00;100760.09;10174040;29;20392;-71
2021/01/13 19:56:49;;;;;;;19.60;12.85;;;;;;;2.89;100.00;100756.66;10174438;29;20051;-72
2021/01/13 20:01:50;;;;;;;20.02;12.32;;;;;;;2.83;100.00;100735.91;10174502;29;20092;-72
2021/01/13 20:06:51;;;;;;;24.30;13.52;;;;;;;2.86;100.00;100756.69;10174305;29;20059;-72
2021/01/13 20:11:52;;;;;;;32.60;20.00;;;;;;;2.91;100.00;100770.53;10157725;29;20055;-72
2021/01/13 20:16:53;;;;;;;28.23;17.58;;;;;;;2.89;100.00;100761.00;10173587;29;20044;-72
2021/01/13 20:21:54;;;;;;;24.52;13.80;;;;;;;2.89;100.00;100768.81;10172734;29;20052;-72
2021/01/13 20:26:55;;;;;;;21.83;13.52;;;;;;;2.95;100.00;100777.41;10172786;29;20048;-72
2021/01/13 20:31:58;;;;;;;23.27;12.07;;;;;;;2.95;100.00;100782.59;10175551;29;20074;-72
2021/01/13 20:36:59;;;;;;;17.65;12.57;;;;;;;2.88;100.00;100780.09;10192517;29;20051;-72
2021/01/13 20:42:01;;;;;;;18.33;12.75;;;;;;;2.94;100.00;100786.06;10166717;29;20060;-71
2021/01/13 20:47:02;;;;;;;18.58;12.65;;;;;;;2.92;100.00;100790.47;10175762;29;20040;-71
2021/01/13 20:52:04;;;;;;;20.27;12.10;;;;;;;2.80;100.00;100777.56;10174188;29;20051;-71
2021/01/13 20:57:05;;;;;;;22.63;12.60;;;;;;;2.94;100.00;100783.47;10173518;29;20052;-72
2021/01/13 21:02:06;;;;;;;21.38;11.75;;;;;;;2.95;100.00;100776.53;10172964;29;20044;-72
2021/01/13 21:07:12;;;;;;;19.40;11.95;;;;;;;2.96;100.00;100786.94;10158807;29;20039;-72
2021/01/13 21:12:13;;;;;;;17.38;11.88;;;;;;;2.95;100.00;100813.81;10169550;29;20485;-72
2021/01/13 21:17:14;;;;;;;21.70;12.63;;;;;;;2.97;100.00;100808.63;10206544;29;20063;-71
2021/01/13 21:22:15;;;;;;;21.70;11.85;;;;;;;2.99;100.00;100799.94;10212294;29;20044;-72
2021/01/13 21:27:16;;;;;;;22.17;11.10;;;;;;;3.05;100.00;100819.81;10185966;29;20512;-72
2021/01/13 21:32:18;;;;;;;23.15;12.40;;;;;;;3.05;100.00;100806.78;10165370;29;20045;-71
2021/01/13 21:37:19;;;;;;;15.85;10.13;;;;;;;3.12;100.00;100815.41;10161449;29;20392;-72
2021/01/13 21:42:20;;;;;;;15.60;10.75;;;;;;;3.15;100.00;100820.56;10173249;29;20453;-72
2021/01/13 21:47:21;;;;;;;18.58;11.10;;;;;;;3.06;100.00;100808.53;10180116;29;20048;-71
2021/01/13 21:52:22;;;;;;;19.92;11.35;;;;;;;3.13;100.00;100815.38;10180731;29;20048;-71
2021/01/13 21:57:23;;;;;;;19.05;10.98;;;;;;;3.21;100.00;100831.78;10180690;29;20489;-71
2021/01/13 22:02:24;;;;;;;15.07;10.48;;;;;;;3.22;100.00;100840.47;10179590;29;20051;-71
2021/01/13 22:07:26;;;;;;;18.88;11.45;;;;;;;3.22;100.00;100859.53;10168530;29;20104;-71
2021/01/13 22:12:27;;;;;;;22.30;12.00;;;;;;;3.20;100.00;100848.28;10219459;29;20484;-71
2021/01/13 22:17:29;;;;;;;18.55;11.13;;;;;;;3.24;100.00;100863.00;10201969;29;20507;-72
2021/01/13 22:22:30;;;;;;;18.27;10.73;;;;;;;3.07;100.00;100864.03;10218344;29;20051;-71
2021/01/13 22:27:32;;;;;;;17.35;10.02;;;;;;;3.01;100.00;100875.38;10145390;29;20063;-72
2021/01/13 22:32:37;;;;;;;18.45;10.30;;;;;;;3.04;100.00;100863.19;10155021;29;20489;-72
2021/01/13 22:37:38;;;;;;;17.25;10.93;;;;;;;3.03;100.00;100874.47;10153171;29;20044;-72
2021/01/13 22:42:39;;;;;;;15.88;9.63;;;;;;;3.02;100.00;100885.75;10178017;29;20048;-71
2021/01/13 22:47:42;;;;;;;15.65;10.77;;;;;;;2.97;100.00;100899.69;10178580;29;20044;-72
2021/01/13 22:52:43;;;;;;;19.65;10.98;;;;;;;2.91;100.00;100904.97;10177568;29;20473;-72